Time;durP1;ratioP1;P1;durP2;ratioP2;P2;SDS_P1;SDS_P2;PMS_P1;PMS_P2;Temp;Humidity;BMP_temperature;BMP_pressure;BME280_temperature;BME280_humidity;BME280_pressure;Samples;Min_cycle;Max_cycle;Signal;HPM_P1;HPM_P2
2024/01/21 00:01:12;;;;;;;;;;;14.60;44.80;;;;;;7394907;19;1857;-61
2024/01/21 00:03:37;;;;;;;;;;;14.60;44.80;;;;;;7399273;19;1835;-60
2024/01/21 00:06:03;;;;;;;;;;;14.60;44.80;;;;;;7395457;19;1535;-60
2024/01/21 00:08:28;;;;;;;;;;;14.60;45.00;;;;;;7396192;19;1811;-60
2024/01/21 00:10:53;;;;;;;;;;;14.60;45.00;;;;;;7393136;19;1328;-60
2024/01/21 00:13:19;;;;;;;;;;;14.50;44.70;;;;;;7392687;19;1554;-61
2024/01/21 00:15:44;;;;;;;;;;;14.50;45.00;;;;;;7393456;19;990;-60
2024/01/21 00:18:10;;;;;;;;;;;14.50;45.10;;;;;;7395841;19;1779;-60
2024/01/21 00:20:35;;;;;;;;;;;14.50;45.00;;;;;;7393562;19;2664;-61
2024/01/21 00:23:01;;;;;;;;;;;14.50;45.00;;;;;;7393383;19;1841;-60
2024/01/21 00:25:26;;;;;;;;;;;14.50;45.20;;;;;;7398737;19;1603;-60
2024/01/21 00:27:52;;;;;;;;;;;14.50;45.00;;;;;;7397874;19;1648;-60
2024/01/21 00:30:17;;;;;;;;;;;14.40;45.10;;;;;;7393793;19;1396;-60
2024/01/21 00:32:43;;;;;;;;;;;14.40;45.30;;;;;;7397095;19;1655;-60
2024/01/21 00:35:08;;;;;;;;;;;14.40;45.20;;;;;;7392240;19;914;-60
2024/01/21 00:37:34;;;;;;;;;;;14.30;45.00;;;;;;7393100;19;1164;-60
2024/01/21 00:39:59;;;;;;;;;;;14.40;45.20;;;;;;7395403;19;1650;-60
2024/01/21 00:42:24;;;;;;;;;;;14.30;44.90;;;;;;7392330;19;1841;-60
2024/01/21 00:44:50;;;;;;;;;;;14.30;45.20;;;;;;7394707;19;1429;-60
2024/01/21 00:47:15;;;;;;;;;;;14.30;44.80;;;;;;7394031;19;1841;-60
2024/01/21 00:49:41;;;;;;;;;;;14.30;45.30;;;;;;7396024;19;1465;-60
2024/01/21 00:52:06;;;;;;;;;;;14.30;45.00;;;;;;7404085;19;1896;-60
2024/01/21 00:54:32;;;;;;;;;;;14.20;44.90;;;;;;7399920;19;1002;-60
2024/01/21 00:56:58;;;;;;;;;;;14.20;44.90;;;;;;7399766;19;851;-60
2024/01/21 00:59:23;;;;;;;;;;;14.20;44.90;;;;;;7401726;19;1562;-60
2024/01/21 01:01:48;;;;;;;;;;;14.20;44.70;;;;;;7400608;19;1849;-60
2024/01/21 01:04:14;;;;;;;;;;;14.20;44.70;;;;;;7404234;19;1666;-60
2024/01/21 01:06:39;;;;;;;;;;;14.20;44.90;;;;;;7401908;19;1584;-60
2024/01/21 01:09:05;;;;;;;;;;;14.20;44.50;;;;;;7403096;19;3038;-60
2024/01/21 01:11:30;;;;;;;;;;;14.10;44.50;;;;;;7403630;19;1790;-60
2024/01/21 01:13:56;;;;;;;;;;;14.10;44.40;;;;;;7400569;19;780;-60
2024/01/21 01:16:22;;;;;;;;;;;14.10;44.50;;;;;;7403801;19;1529;-60
2024/01/21 01:18:48;;;;;;;;;;;14.10;44.40;;;;;;7402624;19;2229;-60
2024/01/21 01:21:14;;;;;;;;;;;14.10;44.60;;;;;;7403042;19;1849;-60
2024/01/21 01:23:39;;;;;;;;;;;14.00;44.20;;;;;;7400509;19;1011;-60
2024/01/21 01:26:06;;;;;;;;;;;14.00;44.10;;;;;;7400944;19;840;-60
2024/01/21 01:28:31;;;;;;;;;;;14.00;44.20;;;;;;7401498;19;1625;-60
2024/01/21 01:30:57;;;;;;;;;;;14.00;44.90;;;;;;7400189;19;1500;-60
2024/01/21 01:33:22;;;;;;;;;;;14.00;44.00;;;;;;7403767;19;1913;-60
2024/01/21 01:35:47;;;;;;;;;;;14.00;43.80;;;;;;7398385;19;1697;-60
2024/01/21 01:38:13;;;;;;;;;;;14.00;43.90;;;;;;7400623;19;1661;-60
2024/01/21 01:40:38;;;;;;;;;;;14.00;43.60;;;;;;7401705;19;1487;-60
2024/01/21 01:43:04;;;;;;;;;;;14.00;43.60;;;;;;7398803;19;1921;-60
2024/01/21 01:45:29;;;;;;;;;;;13.90;43.60;;;;;;7399851;19;1562;-60
2024/01/21 01:47:56;;;;;;;;;;;13.90;43.70;;;;;;7400844;19;1669;-60
2024/01/21 01:50:21;;;;;;;;;;;13.90;43.50;;;;;;7401787;19;1914;-60
2024/01/21 01:52:47;;;;;;;;;;;13.90;43.50;;;;;;7401893;19;1598;-60
2024/01/21 01:55:12;;;;;;;;;;;13.80;43.40;;;;;;7401482;19;1617;-61
2024/01/21 01:57:38;;;;;;;;;;;13.80;43.40;;;;;;7400799;19;1585;-60
2024/01/21 02:00:06;;;;;;;;;;;13.80;43.10;;;;;;7396897;19;1506;-60
2024/01/21 02:02:34;;;;;;;;;;;13.80;43.50;;;;;;7400891;19;1906;-60
2024/01/21 02:05:03;;;;;;;;;;;13.80;43.40;;;;;;7399485;19;1852;-60
2024/01/21 02:07:29;;;;;;;;;;;13.80;43.70;;;;;;7399462;19;994;-60
2024/01/21 02:09:54;;;;;;;;;;;13.80;43.40;;;;;;7400570;19;1525;-60
2024/01/21 02:12:20;;;;;;;;;;;13.80;43.40;;;;;;7396154;19;1727;-60
2024/01/21 02:14:45;;;;;;;;;;;13.90;43.40;;;;;;7400620;19;2098;-60
2024/01/21 02:17:10;;;;;;;;;;;13.90;43.10;;;;;;7401986;19;1649;-60
2024/01/21 02:19:36;;;;;;;;;;;14.00;43.50;;;;;;7397755;19;1866;-60
2024/01/21 02:22:02;;;;;;;;;;;14.20;43.10;;;;;;7399810;19;2182;-60
2024/01/21 02:24:30;;;;;;;;;;;14.40;42.80;;;;;;7397271;19;986;-61
2024/01/21 02:26:56;;;;;;;;;;;14.70;42.90;;;;;;7397905;19;998;-60
2024/01/21 02:29:21;;;;;;;;;;;15.10;42.30;;;;;;7397363;19;1529;-60
2024/01/21 02:31:47;;;;;;;;;;;15.50;41.60;;;;;;7397175;19;1573;-60
2024/01/21 02:34:12;;;;;;;;;;;16.00;41.00;;;;;;7395987;19;1022;-60
2024/01/21 02:36:37;;;;;;;;;;;16.30;40.00;;;;;;7400805;19;1824;-61
2024/01/21 02:39:03;;;;;;;;;;;16.70;39.50;;;;;;7398503;19;879;-61
2024/01/21 02:41:29;;;;;;;;;;;17.00;39.10;;;;;;7398878;19;1850;-61
2024/01/21 02:43:54;;;;;;;;;;;17.30;38.70;;;;;;7399028;19;1514;-61
2024/01/21 02:46:20;;;;;;;;;;;17.50;38.20;;;;;;7399959;19;1579;-61
2024/01/21 02:48:45;;;;;;;;;;;17.70;37.90;;;;;;7400594;19;1807;-61
2024/01/21 02:51:14;;;;;;;;;;;17.80;37.60;;;;;;7397897;19;1053;-61
2024/01/21 02:53:40;;;;;;;;;;;17.90;37.50;;;;;;7397478;19;844;-61
2024/01/21 02:56:05;;;;;;;;;;;18.00;37.30;;;;;;7394209;19;3711;-61
2024/01/21 02:58:31;;;;;;;;;;;18.10;37.30;;;;;;7398555;19;1636;-61
2024/01/21 03:00:56;;;;;;;;;;;18.20;37.20;;;;;;7397825;19;1842;-61
2024/01/21 03:03:22;;;;;;;;;;;18.20;37.20;;;;;;7399202;19;2068;-61
2024/01/21 03:05:47;;;;;;;;;;;18.20;37.30;;;;;;7399729;19;1600;-61
2024/01/21 03:08:14;;;;;;;;;;;18.00;37.50;;;;;;7401359;19;1491;-61
2024/01/21 03:10:40;;;;;;;;;;;17.80;37.70;;;;;;7398251;19;1622;-61
2024/01/21 03:13:07;;;;;;;;;;;17.70;37.90;;;;;;7396635;19;1541;-61
2024/01/21 03:15:32;;;;;;;;;;;17.50;38.30;;;;;;7396544;19;1553;-61
2024/01/21 03:17:58;;;;;;;;;;;17.30;38.60;;;;;;7396230;19;1686;-61
2024/01/21 03:20:24;;;;;;;;;;;17.20;39.00;;;;;;7400762;19;1663;-61
2024/01/21 03:22:49;;;;;;;;;;;17.00;39.30;;;;;;7395649;19;2191;-61
2024/01/21 03:25:15;;;;;;;;;;;16.90;39.60;;;;;;7400343;19;1575;-61
2024/01/21 03:27:40;;;;;;;;;;;16.70;39.90;;;;;;7395155;19;795;-61
2024/01/21 03:30:06;;;;;;;;;;;16.60;40.10;;;;;;7396409;19;963;-60
2024/01/21 03:32:31;;;;;;;;;;;16.50;40.40;;;;;;7396306;19;2729;-61
2024/01/21 03:34:57;;;;;;;;;;;16.30;40.30;;;;;;7394433;19;1077;-61
2024/01/21 03:37:22;;;;;;;;;;;16.20;40.80;;;;;;7396947;19;1599;-60
2024/01/21 03:39:48;;;;;;;;;;;16.20;41.10;;;;;;7395147;19;827;-61
2024/01/21 03:42:14;;;;;;;;;;;16.10;41.20;;;;;;7398638;19;1857;-61
2024/01/21 03:44:40;;;;;;;;;;;16.00;41.10;;;;;;7396554;19;1001;-61
2024/01/21 03:47:05;;;;;;;;;;;16.00;41.10;;;;;;7398281;19;1856;-61
2024/01/21 03:49:31;;;;;;;;;;;16.00;41.80;;;;;;7394035;19;978;-61
2024/01/21 03:51:56;;;;;;;;;;;16.00;41.10;;;;;;7399261;19;1521;-61
2024/01/21 03:54:21;;;;;;;;;;;16.00;41.10;;;;;;7394126;19;804;-61
2024/01/21 03:56:47;;;;;;;;;;;16.00;41.20;;;;;;7394472;19;788;-61
2024/01/21 03:59:13;;;;;;;;;;;16.10;41.20;;;;;;7395835;19;882;-62
2024/01/21 04:01:44;;;;;;;;;;;16.10;41.20;;;;;;7396652;19;1849;-61
2024/01/21 04:04:11;;;;;;;;;;;16.20;41.00;;;;;;7395308;19;847;-61
2024/01/21 04:06:42;;;;;;;;;;;16.30;40.80;;;;;;7394087;19;1345;-61
2024/01/21 04:09:08;;;;;;;;;;;16.50;40.60;;;;;;7395222;19;879;-61
2024/01/21 04:11:34;;;;;;;;;;;16.70;40.20;;;;;;7392961;19;1735;-61
2024/01/21 04:13:59;;;;;;;;;;;16.90;39.80;;;;;;7396252;19;1462;-61
2024/01/21 04:16:24;;;;;;;;;;;17.00;39.40;;;;;;7399351;19;1713;-61
2024/01/21 04:18:50;;;;;;;;;;;17.10;39.30;;;;;;7396031;19;1578;-60
2024/01/21 04:21:15;;;;;;;;;;;17.00;39.20;;;;;;7391920;19;2813;-61
2024/01/21 04:23:41;;;;;;;;;;;17.00;39.30;;;;;;7396672;19;1688;-61
2024/01/21 04:26:06;;;;;;;;;;;16.90;39.50;;;;;;7397516;19;1369;-60
2024/01/21 04:28:32;;;;;;;;;;;16.80;39.80;;;;;;7392562;19;1010;-61
2024/01/21 04:30:57;;;;;;;;;;;16.60;39.90;;;;;;7395918;19;1683;-61
2024/01/21 04:33:22;;;;;;;;;;;16.50;40.20;;;;;;7397746;19;1386;-61
2024/01/21 04:35:48;;;;;;;;;;;16.40;40.20;;;;;;7394875;19;1521;-61
2024/01/21 04:38:13;;;;;;;;;;;16.30;40.50;;;;;;7397238;19;1605;-61
2024/01/21 04:40:39;;;;;;;;;;;16.20;40.80;;;;;;7394669;19;814;-60
2024/01/21 04:43:04;;;;;;;;;;;16.20;40.90;;;;;;7391613;19;2208;-61
2024/01/21 04:45:30;;;;;;;;;;;16.00;40.50;;;;;;7394464;19;1687;-61
2024/01/21 04:47:56;;;;;;;;;;;16.00;40.50;;;;;;7398360;19;1576;-61
2024/01/21 04:50:21;;;;;;;;;;;16.00;40.80;;;;;;7394934;19;1671;-61
2024/01/21 04:52:47;;;;;;;;;;;15.90;40.90;;;;;;7395721;19;1685;-61
2024/01/21 04:55:12;;;;;;;;;;;15.80;40.80;;;;;;7398212;19;1864;-61
2024/01/21 04:57:38;;;;;;;;;;;15.80;40.90;;;;;;7393573;19;2526;-61
2024/01/21 05:00:04;;;;;;;;;;;15.80;40.90;;;;;;7395870;19;1656;-61
2024/01/21 05:02:30;;;;;;;;;;;15.80;41.00;;;;;;7394601;19;2368;-61
2024/01/21 05:04:55;;;;;;;;;;;15.80;41.40;;;;;;7395636;19;1838;-61
2024/01/21 05:07:21;;;;;;;;;;;15.80;41.30;;;;;;7395237;19;1877;-61
2024/01/21 05:09:46;;;;;;;;;;;16.00;41.10;;;;;;7395456;19;1837;-61
2024/01/21 05:12:11;;;;;;;;;;;16.10;41.10;;;;;;7394312;19;1454;-61
2024/01/21 05:14:37;;;;;;;;;;;16.20;40.70;;;;;;7396558;19;1551;-61
2024/01/21 05:17:03;;;;;;;;;;;16.40;40.40;;;;;;7396181;19;1421;-61
2024/01/21 05:19:28;;;;;;;;;;;16.50;40.00;;;;;;7394427;19;1563;-61
2024/01/21 05:21:54;;;;;;;;;;;16.70;39.70;;;;;;7391494;19;1862;-61
2024/01/21 05:24:19;;;;;;;;;;;16.70;39.40;;;;;;7395429;19;1581;-61
2024/01/21 05:26:45;;;;;;;;;;;16.80;39.30;;;;;;7396412;19;1643;-61
2024/01/21 05:29:10;;;;;;;;;;;16.80;39.10;;;;;;7393367;19;1889;-61
2024/01/21 05:31:36;;;;;;;;;;;16.80;39.10;;;;;;7391618;19;1456;-61
2024/01/21 05:34:01;;;;;;;;;;;16.70;39.10;;;;;;7396863;19;1467;-61
2024/01/21 05:36:27;;;;;;;;;;;16.70;39.20;;;;;;7395708;19;1043;-61
2024/01/21 05:38:52;;;;;;;;;;;16.60;39.20;;;;;;7399724;19;697;-61
2024/01/21 05:41:17;;;;;;;;;;;16.50;39.30;;;;;;7399120;19;1856;-61
2024/01/21 05:43:43;;;;;;;;;;;16.50;39.30;;;;;;7400494;19;1522;-61
2024/01/21 05:46:08;;;;;;;;;;;16.40;39.30;;;;;;7400427;19;1584;-61
2024/01/21 05:48:34;;;;;;;;;;;16.20;39.30;;;;;;7399714;19;890;-61
2024/01/21 05:51:00;;;;;;;;;;;16.20;39.50;;;;;;7398279;19;836;-61
2024/01/21 05:53:25;;;;;;;;;;;16.10;39.50;;;;;;7399739;19;1500;-61
2024/01/21 05:55:51;;;;;;;;;;;16.10;39.60;;;;;;7401457;19;1643;-61
2024/01/21 05:58:16;;;;;;;;;;;16.00;39.50;;;;;;7397130;19;1914;-61
2024/01/21 06:00:41;;;;;;;;;;;16.00;39.50;;;;;;7398392;19;908;-61
2024/01/21 06:03:07;;;;;;;;;;;16.00;39.60;;;;;;7399217;19;1834;-61
2024/01/21 06:05:32;;;;;;;;;;;15.90;39.30;;;;;;7402877;19;1517;-61
2024/01/21 06:07:58;;;;;;;;;;;15.90;39.20;;;;;;7401355;19;2191;-61
2024/01/21 06:10:23;;;;;;;;;;;15.90;39.10;;;;;;7399347;19;1357;-61
2024/01/21 06:12:48;;;;;;;;;;;15.90;39.10;;;;;;7398657;19;1073;-61
2024/01/21 06:15:14;;;;;;;;;;;15.90;38.80;;;;;;7401038;19;1905;-61
2024/01/21 06:17:39;;;;;;;;;;;15.90;38.60;;;;;;7399535;19;1610;-61
2024/01/21 06:20:06;;;;;;;;;;;16.00;38.40;;;;;;7400576;19;1429;-61
2024/01/21 06:22:31;;;;;;;;;;;16.10;38.10;;;;;;7395463;19;1903;-61
2024/01/21 06:24:57;;;;;;;;;;;16.20;37.90;;;;;;7400680;19;1533;-61
2024/01/21 06:27:22;;;;;;;;;;;16.30;37.60;;;;;;7398598;19;1601;-61
2024/01/21 06:29:48;;;;;;;;;;;16.40;37.30;;;;;;7400199;19;1620;-61
2024/01/21 06:32:13;;;;;;;;;;;16.50;37.00;;;;;;7397833;19;2737;-61
2024/01/21 06:34:38;;;;;;;;;;;16.50;36.90;;;;;;7396367;19;1057;-61
2024/01/21 06:37:04;;;;;;;;;;;16.60;36.70;;;;;;7399700;19;1900;-61
2024/01/21 06:39:30;;;;;;;;;;;16.50;36.70;;;;;;7397433;19;838;-61
2024/01/21 06:41:55;;;;;;;;;;;16.50;36.60;;;;;;7396667;19;1835;-61
2024/01/21 06:44:21;;;;;;;;;;;16.50;36.60;;;;;;7399480;19;1539;-61
2024/01/21 06:46:46;;;;;;;;;;;16.50;36.50;;;;;;7396665;19;824;-61
2024/01/21 06:49:12;;;;;;;;;;;16.40;36.60;;;;;;7399556;19;1604;-61
2024/01/21 06:51:47;;;;;;;;;;;16.30;36.50;;;;;;7397425;19;2224;-61
2024/01/21 06:54:12;;;;;;;;;;;16.30;36.70;;;;;;7398835;19;1626;-61
2024/01/21 06:56:38;;;;;;;;;;;16.10;36.60;;;;;;7396966;19;1157;-61
2024/01/21 06:59:04;;;;;;;;;;;16.10;36.70;;;;;;7396064;19;1298;-61
2024/01/21 07:01:29;;;;;;;;;;;16.00;36.70;;;;;;7401613;19;1842;-61
2024/01/21 07:03:54;;;;;;;;;;;16.00;36.70;;;;;;7395217;19;2896;-61
2024/01/21 07:06:20;;;;;;;;;;;16.00;36.80;;;;;;7399635;19;1612;-61
2024/01/21 07:08:45;;;;;;;;;;;15.90;36.70;;;;;;7394971;19;2794;-61
2024/01/21 07:11:11;;;;;;;;;;;16.00;36.60;;;;;;7401091;19;2984;-60
2024/01/21 07:13:36;;;;;;;;;;;16.00;36.50;;;;;;7395573;19;826;-61
2024/01/21 07:16:02;;;;;;;;;;;16.00;36.50;;;;;;7397868;19;1726;-61
2024/01/21 07:18:27;;;;;;;;;;;16.00;36.50;;;;;;7398241;19;1672;-61
2024/01/21 07:20:53;;;;;;;;;;;16.10;36.30;;;;;;7400425;19;1792;-61
2024/01/21 07:23:18;;;;;;;;;;;16.20;36.00;;;;;;7393817;19;3592;-61
2024/01/21 07:25:44;;;;;;;;;;;16.20;35.80;;;;;;7397198;19;2667;-61
2024/01/21 07:28:09;;;;;;;;;;;16.30;35.90;;;;;;7397663;19;2546;-61
2024/01/21 07:30:34;;;;;;;;;;;16.40;35.60;;;;;;7393705;19;2964;-61
2024/01/21 07:33:00;;;;;;;;;;;16.40;35.40;;;;;;7391714;19;3266;-61
2024/01/21 07:35:25;;;;;;;;;;;16.50;35.40;;;;;;7394295;19;3142;-61
2024/01/21 07:37:51;;;;;;;;;;;16.50;35.20;;;;;;7393556;19;3133;-61
2024/01/21 07:40:16;;;;;;;;;;;16.50;35.30;;;;;;7395107;19;847;-61
2024/01/21 07:42:42;;;;;;;;;;;16.50;35.40;;;;;;7393157;19;1869;-61
2024/01/21 07:45:07;;;;;;;;;;;16.50;35.40;;;;;;7398094;19;1529;-61
2024/01/21 07:47:35;;;;;;;;;;;16.50;35.50;;;;;;7395026;19;1940;-61
2024/01/21 07:50:01;;;;;;;;;;;16.40;35.60;;;;;;7396674;19;2871;-61
2024/01/21 07:52:26;;;;;;;;;;;16.40;35.80;;;;;;7394474;19;1038;-61
2024/01/21 07:54:52;;;;;;;;;;;16.30;35.80;;;;;;7399965;19;1489;-60
2024/01/21 07:57:17;;;;;;;;;;;16.30;35.90;;;;;;7393860;19;784;-61
2024/01/21 07:59:42;;;;;;;;;;;16.30;36.00;;;;;;7397006;19;1916;-61
2024/01/21 08:02:08;;;;;;;;;;;16.20;36.10;;;;;;7398524;19;1888;-60
2024/01/21 08:04:34;;;;;;;;;;;16.10;35.90;;;;;;7391234;19;2970;-61
2024/01/21 08:07:00;;;;;;;;;;;16.10;36.30;;;;;;7395743;19;894;-61
2024/01/21 08:09:25;;;;;;;;;;;16.00;36.10;;;;;;7395934;19;1661;-61
2024/01/21 08:11:50;;;;;;;;;;;16.00;36.40;;;;;;7394639;19;1308;-61
2024/01/21 08:14:16;;;;;;;;;;;16.00;36.50;;;;;;7393549;19;1940;-60
2024/01/21 08:16:41;;;;;;;;;;;16.00;36.40;;;;;;7392794;19;1803;-61
2024/01/21 08:19:07;;;;;;;;;;;15.90;36.50;;;;;;7397411;19;1491;-61
2024/01/21 08:21:32;;;;;;;;;;;15.90;36.30;;;;;;7392529;19;1848;-61
2024/01/21 08:23:58;;;;;;;;;;;15.90;36.80;;;;;;7395792;19;2359;-60
2024/01/21 08:26:23;;;;;;;;;;;15.90;37.00;;;;;;7399076;19;1727;-61
2024/01/21 08:28:49;;;;;;;;;;;15.90;36.80;;;;;;7392086;19;1817;-61
2024/01/21 08:31:14;;;;;;;;;;;15.90;36.90;;;;;;7395271;19;1090;-61
2024/01/21 08:33:40;;;;;;;;;;;15.90;36.90;;;;;;7397055;19;1396;-60
2024/01/21 08:36:05;;;;;;;;;;;15.90;36.90;;;;;;7396483;19;1544;-60
2024/01/21 08:38:31;;;;;;;;;;;15.90;37.00;;;;;;7393608;19;1963;-61
2024/01/21 08:40:56;;;;;;;;;;;16.00;37.10;;;;;;7394264;19;891;-61
2024/01/21 08:43:22;;;;;;;;;;;16.00;37.10;;;;;;7391823;19;1862;-61
2024/01/21 08:45:47;;;;;;;;;;;16.00;37.00;;;;;;7395468;19;1841;-61
2024/01/21 08:48:13;;;;;;;;;;;16.00;37.00;;;;;;7392744;19;1494;-61
2024/01/21 08:50:39;;;;;;;;;;;16.00;37.20;;;;;;7394042;19;2569;-60
2024/01/21 08:53:04;;;;;;;;;;;16.00;36.80;;;;;;7393726;19;1953;-60
2024/01/21 08:55:29;;;;;;;;;;;16.00;36.70;;;;;;7393234;19;1554;-60
2024/01/21 08:57:55;;;;;;;;;;;16.10;36.90;;;;;;7395276;19;1559;-61
2024/01/21 09:00:20;;;;;;;;;;;16.10;36.80;;;;;;7395686;19;1853;-61
2024/01/21 09:02:46;;;;;;;;;;;16.10;36.90;;;;;;7397137;19;1858;-60
2024/01/21 09:05:13;;;;;;;;;;;16.10;36.90;;;;;;7395180;19;2589;-61
2024/01/21 09:07:38;;;;;;;;;;;16.10;37.10;;;;;;7396287;19;1534;-61
2024/01/21 09:10:04;;;;;;;;;;;16.00;37.00;;;;;;7394983;19;1594;-61
2024/01/21 09:12:30;;;;;;;;;;;16.00;37.00;;;;;;7394764;19;2740;-61
2024/01/21 09:14:55;;;;;;;;;;;16.10;37.10;;;;;;7400670;19;2414;-61
2024/01/21 09:17:21;;;;;;;;;;;16.60;37.30;;;;;;7401698;19;2809;-61
2024/01/21 09:19:46;;;;;;;;;;;17.20;36.30;;;;;;7399989;19;2372;-61
2024/01/21 09:22:12;;;;;;;;;;;17.80;35.20;;;;;;7401807;19;1853;-61
2024/01/21 09:24:37;;;;;;;;;;;18.20;34.60;;;;;;7402227;19;1535;-60
2024/01/21 09:27:03;;;;;;;;;;;18.40;34.00;;;;;;7403594;19;1529;-61
2024/01/21 09:29:28;;;;;;;;;;;18.40;33.80;;;;;;7400898;19;1827;-60
2024/01/21 09:31:57;;;;;;;;;;;18.40;34.00;;;;;;7401778;19;967;-60
2024/01/21 09:34:22;;;;;;;;;;;18.30;34.00;;;;;;7400422;19;1754;-60
2024/01/21 09:36:48;;;;;;;;;;;18.40;33.90;;;;;;7401119;19;1827;-61
2024/01/21 09:39:13;;;;;;;;;;;18.50;33.80;;;;;;7404272;19;1665;-61
2024/01/21 09:41:51;;;;;;;;;;;18.70;33.60;;;;;;7394599;19;2379;-61
2024/01/21 09:44:35;;;;;;;;;;;18.70;33.50;;;;;;7401970;19;2861;-61
2024/01/21 09:47:01;;;;;;;;;;;18.90;33.20;;;;;;7398144;19;1348;-61
2024/01/21 09:49:27;;;;;;;;;;;19.00;33.30;;;;;;7393953;19;1666;-60
2024/01/21 09:51:52;;;;;;;;;;;19.10;33.00;;;;;;7400036;19;1892;-61
2024/01/21 09:54:21;;;;;;;;;;;19.20;33.00;;;;;;7395844;19;900;-61
2024/01/21 09:56:47;;;;;;;;;;;19.20;32.80;;;;;;7399186;19;1930;-60
2024/01/21 09:59:12;;;;;;;;;;;19.20;32.90;;;;;;7401866;19;1595;-61
2024/01/21 10:01:39;;;;;;;;;;;19.20;32.90;;;;;;7400322;19;2515;-61
2024/01/21 10:04:05;;;;;;;;;;;19.30;32.90;;;;;;7400143;19;2404;-61
2024/01/21 10:06:30;;;;;;;;;;;19.30;32.90;;;;;;7395803;19;2608;-61
2024/01/21 10:09:16;;;;;;;;;;;19.20;32.90;;;;;;7394915;19;2767;-61
2024/01/21 10:11:41;;;;;;;;;;;19.30;33.20;;;;;;7398463;19;1529;-60
2024/01/21 10:14:07;;;;;;;;;;;19.20;33.00;;;;;;7398884;19;2186;-61
2024/01/21 10:16:32;;;;;;;;;;;19.20;33.50;;;;;;7401608;19;2209;-61
2024/01/21 10:18:58;;;;;;;;;;;19.10;33.00;;;;;;7398910;19;1575;-61
2024/01/21 10:21:23;;;;;;;;;;;19.10;33.70;;;;;;7394110;19;1858;-61
2024/01/21 10:23:48;;;;;;;;;;;19.00;33.80;;;;;;7396852;19;1134;-61
2024/01/21 10:26:14;;;;;;;;;;;18.90;33.70;;;;;;7398383;19;1844;-61
2024/01/21 10:28:39;;;;;;;;;;;18.80;33.90;;;;;;7397907;19;1970;-60
2024/01/21 10:31:08;;;;;;;;;;;18.80;34.00;;;;;;7400407;19;848;-59
2024/01/21 10:33:33;;;;;;;;;;;18.70;34.10;;;;;;7397942;19;1559;-60
2024/01/21 10:36:01;;;;;;;;;;;18.60;34.30;;;;;;7399814;19;1588;-61
2024/01/21 10:38:32;;;;;;;;;;;18.60;34.50;;;;;;7397106;19;1977;-60
2024/01/21 10:40:58;;;;;;;;;;;18.60;34.50;;;;;;7398378;19;2316;-60
2024/01/21 10:43:24;;;;;;;;;;;18.50;34.50;;;;;;7398822;19;1846;-59
2024/01/21 10:45:49;;;;;;;;;;;18.60;34.60;;;;;;7396904;19;819;-60
2024/01/21 10:48:15;;;;;;;;;;;18.60;34.50;;;;;;7390606;19;2914;-61
2024/01/21 10:50:43;;;;;;;;;;;18.70;34.50;;;;;;7394779;19;3114;-61
2024/01/21 10:53:12;;;;;;;;;;;18.70;34.80;;;;;;7398574;19;2618;-60
2024/01/21 10:55:40;;;;;;;;;;;18.80;34.60;;;;;;7398270;19;2646;-61
2024/01/21 10:58:06;;;;;;;;;;;18.90;34.60;;;;;;7400046;19;1821;-61
2024/01/21 11:00:32;;;;;;;;;;;18.90;34.70;;;;;;7396893;19;1631;-61
2024/01/21 11:03:16;;;;;;;;;;;18.90;34.80;;;;;;7396940;19;1911;-61
2024/01/21 11:05:42;;;;;;;;;;;18.90;34.80;;;;;;7396485;19;1383;-61
2024/01/21 11:08:07;;;;;;;;;;;18.90;34.60;;;;;;7399809;19;2796;-61
2024/01/21 11:10:36;;;;;;;;;;;18.90;34.80;;;;;;7398166;19;2752;-61
2024/01/21 11:13:01;;;;;;;;;;;18.90;34.80;;;;;;7399257;19;1677;-61
2024/01/21 11:15:27;;;;;;;;;;;18.90;35.10;;;;;;7396862;19;1651;-61
2024/01/21 11:18:06;;;;;;;;;;;18.80;35.10;;;;;;7395482;19;823;-61
2024/01/21 11:20:32;;;;;;;;;;;18.80;35.20;;;;;;7398765;19;1863;-61
2024/01/21 11:23:01;;;;;;;;;;;18.70;35.10;;;;;;7397554;19;1842;-60
2024/01/21 11:25:33;;;;;;;;;;;18.60;35.10;;;;;;7396881;19;2438;-61
2024/01/21 11:28:02;;;;;;;;;;;18.60;35.30;;;;;;7394190;19;1686;-60
2024/01/21 11:30:29;;;;;;;;;;;18.50;35.30;;;;;;7397625;19;2149;-61
2024/01/21 11:32:57;;;;;;;;;;;18.50;35.40;;;;;;7396995;19;2183;-61
2024/01/21 11:35:22;;;;;;;;;;;18.50;35.40;;;;;;7395734;19;2533;-61
2024/01/21 11:37:52;;;;;;;;;;;18.50;35.60;;;;;;7394485;19;1724;-61
2024/01/21 11:40:18;;;;;;;;;;;18.40;35.50;;;;;;7395596;19;1831;-60
2024/01/21 11:42:45;;;;;;;;;;;18.40;35.60;;;;;;7392421;19;1846;-61
2024/01/21 11:45:11;;;;;;;;;;;18.40;35.50;;;;;;7396612;19;2460;-61
2024/01/21 11:47:36;;;;;;;;;;;18.50;35.60;;;;;;7399254;19;1603;-60
2024/01/21 11:50:02;;;;;;;;;;;18.50;35.40;;;;;;7394859;19;1701;-61
2024/01/21 11:52:27;;;;;;;;;;;18.50;35.30;;;;;;7397824;19;2044;-61
2024/01/21 11:54:52;;;;;;;;;;;18.50;35.10;;;;;;7397768;19;1992;-61
2024/01/21 11:57:19;;;;;;;;;;;18.60;35.10;;;;;;7398581;19;1752;-61
2024/01/21 11:59:45;;;;;;;;;;;18.60;35.00;;;;;;7397221;19;1568;-61
2024/01/21 12:02:11;;;;;;;;;;;18.70;35.10;;;;;;7398119;19;1842;-61
2024/01/21 12:04:37;;;;;;;;;;;18.70;35.10;;;;;;7393193;19;1651;-61
2024/01/21 12:07:02;;;;;;;;;;;18.70;35.10;;;;;;7397730;19;2261;-61
2024/01/21 12:09:28;;;;;;;;;;;18.70;35.20;;;;;;7394305;19;3164;-61
2024/01/21 12:11:54;;;;;;;;;;;18.60;35.00;;;;;;7394703;19;2001;-61
2024/01/21 12:14:20;;;;;;;;;;;18.60;35.20;;;;;;7398302;19;1768;-61
2024/01/21 12:16:48;;;;;;;;;;;18.70;35.60;;;;;;7395746;19;1551;-61
2024/01/21 12:19:14;;;;;;;;;;;18.70;35.40;;;;;;7395143;19;2448;-62
2024/01/21 12:21:42;;;;;;;;;;;18.70;35.50;;;;;;7395736;19;2671;-61
2024/01/21 12:24:07;;;;;;;;;;;18.60;35.60;;;;;;7396609;19;1664;-61
2024/01/21 12:26:33;;;;;;;;;;;18.70;35.80;;;;;;7392122;19;2507;-61
2024/01/21 12:28:59;;;;;;;;;;;18.70;35.80;;;;;;7399134;19;1172;-61
2024/01/21 12:31:25;;;;;;;;;;;18.70;35.80;;;;;;7393760;19;1476;-61
2024/01/21 12:33:50;;;;;;;;;;;18.60;35.70;;;;;;7398902;19;1755;-61
2024/01/21 12:36:16;;;;;;;;;;;18.70;36.50;;;;;;7395941;19;1942;-61
2024/01/21 12:38:41;;;;;;;;;;;18.60;35.60;;;;;;7395348;19;1681;-61
2024/01/21 12:41:07;;;;;;;;;;;18.60;35.80;;;;;;7393432;19;1860;-61
2024/01/21 12:43:33;;;;;;;;;;;18.60;35.80;;;;;;7392296;19;1861;-60
2024/01/21 12:45:59;;;;;;;;;;;18.60;36.70;;;;;;7410297;19;2015;-60
2024/01/21 12:48:24;;;;;;;;;;;18.50;36.00;;;;;;7411712;19;1519;-60
2024/01/21 12:50:49;;;;;;;;;;;18.50;36.40;;;;;;7405998;19;920;-60
2024/01/21 12:53:15;;;;;;;;;;;18.50;36.30;;;;;;7408044;19;1719;-60
2024/01/21 12:55:40;;;;;;;;;;;18.50;36.40;;;;;;7410155;19;1186;-60
2024/01/21 12:58:08;;;;;;;;;;;18.50;36.20;;;;;;7405756;19;852;-60
2024/01/21 13:00:34;;;;;;;;;;;18.60;36.20;;;;;;7406942;19;2876;-60
2024/01/21 13:02:59;;;;;;;;;;;18.60;36.10;;;;;;7407485;19;1875;-61
2024/01/21 13:05:25;;;;;;;;;;;18.70;36.00;;;;;;7411843;19;1681;-61
2024/01/21 13:07:56;;;;;;;;;;;18.80;36.10;;;;;;7413248;19;1824;-60
2024/01/21 13:10:21;;;;;;;;;;;18.90;35.80;;;;;;7405668;19;3586;-62
2024/01/21 13:12:47;;;;;;;;;;;18.90;35.70;;;;;;7408683;19;3559;-61
2024/01/21 13:15:12;;;;;;;;;;;18.90;35.80;;;;;;7407093;19;2588;-60
2024/01/21 13:17:37;;;;;;;;;;;18.90;35.50;;;;;;7407959;19;1839;-60
2024/01/21 13:20:03;;;;;;;;;;;19.00;35.60;;;;;;7410383;19;1818;-61
2024/01/21 13:22:29;;;;;;;;;;;19.00;35.60;;;;;;7405943;19;1913;-61
2024/01/21 13:24:54;;;;;;;;;;;19.00;35.50;;;;;;7410173;19;1611;-61
2024/01/21 13:27:26;;;;;;;;;;;19.00;35.70;;;;;;7407876;19;2667;-60
2024/01/21 13:32:40;;;;;;;;;;;18.90;35.90;;;;;;7411326;19;1316;-60
2024/01/21 13:35:06;;;;;;;;;;;18.80;36.00;;;;;;7407595;19;795;-61
2024/01/21 13:37:31;;;;;;;;;;;18.80;36.10;;;;;;7412311;19;2029;-61
2024/01/21 13:39:56;;;;;;;;;;;18.70;36.40;;;;;;7410108;19;2137;-60
2024/01/21 13:42:22;;;;;;;;;;;18.70;36.50;;;;;;7406320;19;1849;-60
2024/01/21 13:44:47;;;;;;;;;;;18.60;36.70;;;;;;7409504;19;1739;-61
2024/01/21 13:47:13;;;;;;;;;;;18.60;36.80;;;;;;7408125;19;1486;-61
2024/01/21 13:49:38;;;;;;;;;;;18.40;36.90;;;;;;7404961;19;1683;-61
2024/01/21 13:52:04;;;;;;;;;;;18.40;37.10;;;;;;7406593;19;1511;-61
2024/01/21 13:54:29;;;;;;;;;;;18.40;37.30;;;;;;7402804;19;827;-61
2024/01/21 13:56:55;;;;;;;;;;;18.40;37.40;;;;;;7397164;19;843;-61
2024/01/21 13:59:20;;;;;;;;;;;18.40;37.40;;;;;;7398042;19;863;-61
2024/01/21 14:01:46;;;;;;;;;;;18.40;37.40;;;;;;7398072;19;1857;-61
2024/01/21 14:04:12;;;;;;;;;;;18.50;37.20;;;;;;7398986;19;2311;-61
2024/01/21 14:06:41;;;;;;;;;;;18.50;37.20;;;;;;7398969;19;1818;-60
2024/01/21 14:09:07;;;;;;;;;;;18.50;37.20;;;;;;7396956;19;2954;-60
2024/01/21 14:11:32;;;;;;;;;;;18.60;37.20;;;;;;7395666;19;2773;-60
2024/01/21 14:13:58;;;;;;;;;;;18.70;37.00;;;;;;7399627;19;1634;-61
2024/01/21 14:16:23;;;;;;;;;;;18.80;37.00;;;;;;7402929;19;1664;-61
2024/01/21 14:18:48;;;;;;;;;;;18.80;37.00;;;;;;7400182;19;1841;-61
2024/01/21 14:21:14;;;;;;;;;;;18.80;37.10;;;;;;7403001;19;1856;-60
2024/01/21 14:23:39;;;;;;;;;;;18.80;37.10;;;;;;7398876;19;1735;-61
2024/01/21 14:26:07;;;;;;;;;;;18.80;37.20;;;;;;7399571;19;1906;-61